Wetterdaten: Woche 25.01.16 - 31.01.16 (KW4)
Datum Zeit Auen-Temp. Temp gefhlt Luftfeuchte Luftdruck Regen Wind Richtung Taupunkt Windben
25.01.2016 00:00 1,8 C 1,8 C 72 % 1035,4 hPa 0,0 mm 0,4 km/h (0 Bft) N -2,8 C 1,1 km/h (1 Bft)
25.01.2016 01:00 2,6 C 3,1 C 70 % 1035,3 hPa 0,0 mm 1,1 km/h (1 Bft) S -2,2 C 2,7 km/h (1 Bft)
25.01.2016 02:00 2,6 C 2,9 C 73 % 1035,1 hPa 0,0 mm 0,5 km/h (0 Bft) O-SO -1,8 C 2,0 km/h (1 Bft)
25.01.2016 03:00 2,7 C 3,0 C 75 % 1034,6 hPa 0,0 mm 0,4 km/h (0 Bft) O-SO -1,3 C 0,6 km/h (0 Bft)
25.01.2016 04:00 2,5 C 2,6 C 76 % 1034,4 hPa 0,0 mm 0,2 km/h (0 Bft) N -1,3 C 0,0 km/h (0 Bft)
25.01.2016 05:00 2,5 C 2,6 C 77 % 1034,3 hPa 0,0 mm 0,4 km/h (0 Bft) N -1,0 C 0,8 km/h (0 Bft)
25.01.2016 06:00 2,7 C 2,8 C 77 % 1034,3 hPa 0,0 mm 0,4 km/h (0 Bft) N -0,8 C 0,8 km/h (0 Bft)
25.01.2016 07:00 3,0 C 3,0 C 78 % 1034,2 hPa 0,0 mm 0,4 km/h (0 Bft) N -0,5 C 0,9 km/h (0 Bft)
25.01.2016 08:00 2,8 C 2,9 C 78 % 1034,2 hPa 0,0 mm 0,0 km/h (0 Bft) O-SO -0,7 C 0,4 km/h (0 Bft)
25.01.2016 09:00 3,5 C 4,9 C 77 % 1034,5 hPa 0,0 mm 0,6 km/h (0 Bft) NO -0,1 C 0,5 km/h (0 Bft)
25.01.2016 10:00 4,8 C 7,5 C 75 % 1034,7 hPa 0,0 mm 0,0 km/h (0 Bft) N 0,7 C 0,0 km/h (0 Bft)
25.01.2016 11:00 5,7 C 7,1 C 72 % 1034,7 hPa 0,0 mm 0,1 km/h (0 Bft) N 1,0 C 0,0 km/h (0 Bft)
25.01.2016 12:00 7,0 C 8,3 C 68 % 1034,5 hPa 0,0 mm 0,2 km/h (0 Bft) N 1,5 C 0,2 km/h (0 Bft)
25.01.2016 13:00 7,4 C 8,6 C 66 % 1033,7 hPa 0,0 mm 0,1 km/h (0 Bft) N 1,5 C 0,0 km/h (0 Bft)
25.01.2016 14:00 10,3 C 18,5 C 60 % 1033,2 hPa 0,0 mm 0,0 km/h (0 Bft) N 2,9 C 0,0 km/h (0 Bft)
25.01.2016 15:00 9,6 C 17,3 C 58 % 1033,0 hPa 0,0 mm 0,0 km/h (0 Bft) N 1,8 C 0,0 km/h (0 Bft)
25.01.2016 16:00 7,5 C 8,2 C 65 % 1032,8 hPa 0,0 mm 0,1 km/h (0 Bft) N 1,4 C 0,2 km/h (0 Bft)
25.01.2016 17:00 4,4 C 4,4 C 72 % 1033,1 hPa 0,0 mm 0,8 km/h (0 Bft) W-SW -0,1 C 1,3 km/h (1 Bft)
25.01.2016 18:00 2,6 C 2,2 C 79 % 1033,1 hPa 0,0 mm 0,0 km/h (0 Bft) N -0,8 C 0,0 km/h (0 Bft)
25.01.2016 19:00 1,8 C 1,5 C 83 % 1033,1 hPa 0,0 mm 0,0 km/h (0 Bft) N -0,8 C 0,2 km/h (0 Bft)
25.01.2016 20:00 1,6 C 1,3 C 85 % 1033,1 hPa 0,0 mm 0,0 km/h (0 Bft) N -0,7 C 0,0 km/h (0 Bft)
25.01.2016 21:00 1,3 C 1,0 C 87 % 1033,3 hPa 0,0 mm 0,0 km/h (0 Bft) N -0,6 C 0,0 km/h (0 Bft)
25.01.2016 22:00 1,4 C 1,1 C 87 % 1033,1 hPa 0,0 mm 0,0 km/h (0 Bft) N -0,6 C 0,3 km/h (0 Bft)
25.01.2016 23:00 1,3 C 0,9 C 89 % 1033,4 hPa 0,0 mm 0,1 km/h (0 Bft) N -0,3 C 0,0 km/h (0 Bft)
26.01.2016 00:00 1,4 C 1,0 C 89 % 1033,4 hPa 0,0 mm 0,9 km/h (0 Bft) O-NO -0,2 C 3,6 km/h (1 Bft)
26.01.2016 01:00 1,1 C 0,9 C 89 % 1033,1 hPa 0,0 mm 0,5 km/h (0 Bft) N -0,5 C 1,2 km/h (1 Bft)
26.01.2016 02:00 0,7 C 0,4 C 89 % 1033,1 hPa 0,0 mm 0,8 km/h (0 Bft) O-SO -0,8 C 1,2 km/h (1 Bft)
26.01.2016 03:00 3,8 C 3,3 C 82 % 1033,3 hPa 0,0 mm 6,3 km/h (2 Bft) W-SW 1,0 C 9,9 km/h (2 Bft)
26.01.2016 04:00 3,4 C 3,4 C 73 % 1033,4 hPa 0,0 mm 3,6 km/h (1 Bft) SW -0,9 C 4,1 km/h (1 Bft)
26.01.2016 05:00 1,0 C 0,8 C 80 % 1033,7 hPa 0,0 mm 1,1 km/h (1 Bft) O-NO -2,1 C 1,0 km/h (0 Bft)
26.01.2016 06:00 0,8 C 0,6 C 83 % 1033,9 hPa 0,0 mm 0,4 km/h (0 Bft) N -1,7 C 0,4 km/h (0 Bft)
26.01.2016 07:00 1,4 C 1,2 C 82 % 1033,7 hPa 0,0 mm 1,0 km/h (0 Bft) O-NO -1,3 C 1,7 km/h (1 Bft)
26.01.2016 08:00 1,5 C 1,7 C 81 % 1033,3 hPa 0,0 mm 0,0 km/h (0 Bft) N -1,4 C 0,0 km/h (0 Bft)
26.01.2016 09:00 3,7 C 4,9 C 76 % 1032,9 hPa 0,0 mm 1,3 km/h (1 Bft) NW -0,2 C 1,9 km/h (1 Bft)
26.01.2016 10:00 4,4 C 6,3 C 73 % 1032,8 hPa 0,0 mm 0,1 km/h (0 Bft) N 0,1 C 0,2 km/h (0 Bft)
26.01.2016 11:00 5,8 C 8,2 C 69 % 1033,0 hPa 0,0 mm 0,1 km/h (0 Bft) N 0,6 C 0,2 km/h (0 Bft)
26.01.2016 12:00 7,5 C 9,4 C 65 % 1032,8 hPa 0,0 mm 0,0 km/h (0 Bft) N 1,3 C 0,0 km/h (0 Bft)
26.01.2016 13:00 9,2 C 10,0 C 59 % 1032,5 hPa 0,0 mm 0,2 km/h (0 Bft) N 1,6 C 0,0 km/h (0 Bft)
26.01.2016 14:00 11,9 C 19,3 C 52 % 1032,1 hPa 0,0 mm 0,2 km/h (0 Bft) W-SW 2,4 C 1,0 km/h (0 Bft)
26.01.2016 15:00 11,8 C 16,3 C 50 % 1031,9 hPa 0,0 mm 5,8 km/h (2 Bft) W-SW 1,6 C 9,1 km/h (2 Bft)
26.01.2016 16:00 10,3 C 10,9 C 50 % 1031,8 hPa 0,0 mm 6,8 km/h (2 Bft) W 0,3 C 7,4 km/h (2 Bft)
26.01.2016 17:00 9,4 C 9,4 C 51 % 1032,1 hPa 0,0 mm 7,9 km/h (2 Bft) W-SW -0,1 C 9,4 km/h (2 Bft)
26.01.2016 18:00 6,9 C 6,7 C 58 % 1032,0 hPa 0,0 mm 2,2 km/h (1 Bft) SO -0,7 C 2,8 km/h (1 Bft)
26.01.2016 19:00 5,5 C 5,2 C 62 % 1031,8 hPa 0,0 mm 0,5 km/h (0 Bft) S-SO -1,2 C 0,7 km/h (0 Bft)
26.01.2016 20:00 3,4 C 3,0 C 71 % 1031,8 hPa 0,0 mm 0,7 km/h (0 Bft) S -1,5 C 1,1 km/h (0 Bft)
26.01.2016 21:00 4,5 C 4,4 C 69 % 1031,7 hPa 0,0 mm 1,9 km/h (1 Bft) SO -0,7 C 2,7 km/h (1 Bft)
26.01.2016 22:00 5,1 C 4,7 C 66 % 1031,7 hPa 0,0 mm 0,9 km/h (0 Bft) O-SO -0,7 C 1,6 km/h (1 Bft)
26.01.2016 23:00 2,3 C 2,0 C 72 % 1031,3 hPa 0,0 mm 0,0 km/h (0 Bft) N -2,2 C 0,2 km/h (0 Bft)
27.01.2016 00:00 1,1 C 0,7 C 78 % 1030,9 hPa 0,0 mm 0,0 km/h (0 Bft) N -2,4 C 0,0 km/h (0 Bft)
27.01.2016 01:00 0,2 C -0,1 C 80 % 1030,5 hPa 0,0 mm 0,0 km/h (0 Bft) N -2,8 C 0,0 km/h (0 Bft)
27.01.2016 02:00 -0,1 C -0,5 C 83 % 1030,2 hPa 0,0 mm 0,0 km/h (0 Bft) N -2,7 C 0,0 km/h (0 Bft)
27.01.2016 03:00 0,1 C -0,2 C 85 % 1030,0 hPa 0,0 mm 0,1 km/h (0 Bft) N -2,1 C 0,8 km/h (0 Bft)
27.01.2016 04:00 0,9 C 0,8 C 83 % 1029,9 hPa 0,0 mm 1,3 km/h (1 Bft) W -1,6 C 3,4 km/h (1 Bft)
27.01.2016 05:00 0,7 C 0,5 C 83 % 1030,0 hPa 0,0 mm 1,5 km/h (1 Bft) S-SO -1,9 C 3,9 km/h (1 Bft)
27.01.2016 06:00 2,0 C 2,4 C 78 % 1030,3 hPa 0,0 mm 3,5 km/h (1 Bft) S -1,5 C 6,0 km/h (2 Bft)
27.01.2016 07:00 4,0 C 3,9 C 73 % 1030,7 hPa 0,0 mm 6,3 km/h (2 Bft) SW -0,5 C 9,4 km/h (2 Bft)
27.01.2016 08:00 4,7 C 5,2 C 67 % 1030,7 hPa 0,0 mm 6,1 km/h (2 Bft) S -0,8 C 7,4 km/h (2 Bft)
27.01.2016 09:00 4,2 C 5,8 C 70 % 1030,8 hPa 0,0 mm 2,5 km/h (1 Bft) SW -0,8 C 4,2 km/h (1 Bft)
27.01.2016 10:00 5,0 C 6,9 C 71 % 1030,7 hPa 0,0 mm 1,4 km/h (1 Bft) W 0,1 C 2,1 km/h (1 Bft)
27.01.2016 11:00 6,9 C 9,1 C 66 % 1030,4 hPa 0,0 mm 3,5 km/h (1 Bft) SW 0,9 C 4,8 km/h (1 Bft)
27.01.2016 12:00 9,7 C 11,6 C 58 % 1030,1 hPa 0,0 mm 6,0 km/h (2 Bft) W 1,8 C 9,0 km/h (2 Bft)
27.01.2016 13:00 10,5 C 12,8 C 56 % 1029,8 hPa 0,0 mm 7,4 km/h (2 Bft) W-SW 2,0 C 9,3 km/h (2 Bft)
27.01.2016 14:00 10,9 C 13,3 C 55 % 1029,5 hPa 0,0 mm 6,5 km/h (2 Bft) SW 2,2 C 8,3 km/h (2 Bft)
27.01.2016 15:00 10,9 C 12,7 C 54 % 1029,2 hPa 0,0 mm 5,1 km/h (1 Bft) W-SW 1,9 C 6,2 km/h (2 Bft)
27.01.2016 16:00 10,1 C 10,8 C 54 % 1028,7 hPa 0,0 mm 3,5 km/h (1 Bft) S-SW 1,3 C 3,3 km/h (1 Bft)
27.01.2016 17:00 7,6 C 7,9 C 58 % 1028,2 hPa 0,0 mm 0,3 km/h (0 Bft) N -0,2 C 0,3 km/h (0 Bft)
27.01.2016 18:00 5,3 C 5,5 C 66 % 1027,9 hPa 0,0 mm 0,1 km/h (0 Bft) N -0,4 C 0,0 km/h (0 Bft)
27.01.2016 19:00 3,8 C 3,8 C 71 % 1027,9 hPa 0,0 mm 0,0 km/h (0 Bft) N -0,9 C 0,0 km/h (0 Bft)
27.01.2016 20:00 4,1 C 4,1 C 73 % 1027,8 hPa 0,0 mm 0,5 km/h (0 Bft) S -0,3 C 1,2 km/h (1 Bft)
27.01.2016 21:00 4,4 C 4,7 C 69 % 1027,8 hPa 0,0 mm 1,4 km/h (1 Bft) NO -0,8 C 1,7 km/h (1 Bft)
27.01.2016 22:00 4,7 C 4,7 C 68 % 1027,7 hPa 0,0 mm 1,0 km/h (0 Bft) O-SO -0,7 C 1,8 km/h (1 Bft)
27.01.2016 23:00 5,3 C 5,7 C 62 % 1027,3 hPa 0,0 mm 0,5 km/h (0 Bft) SO -1,4 C 0,0 km/h (0 Bft)
28.01.2016 00:00 4,1 C 4,4 C 66 % 1026,9 hPa 0,0 mm 0,2 km/h (0 Bft) NO -1,7 C 0,0 km/h (0 Bft)
28.01.2016 01:00 3,6 C 3,6 C 68 % 1026,6 hPa 0,0 mm 0,0 km/h (0 Bft) N -1,7 C 0,0 km/h (0 Bft)
28.01.2016 02:00 3,4 C 3,4 C 69 % 1026,2 hPa 0,0 mm 0,4 km/h (0 Bft) S-SW -1,8 C 1,6 km/h (1 Bft)
28.01.2016 03:00 9,6 C 10,1 C 55 % 1026,1 hPa 0,0 mm 8,1 km/h (2 Bft) W-SW 1,1 C 12,0 km/h (2 Bft)
28.01.2016 04:00 9,2 C 8,9 C 49 % 1026,3 hPa 0,0 mm 9,7 km/h (2 Bft) SW -1,1 C 11,5 km/h (2 Bft)
28.01.2016 05:00 8,3 C 7,9 C 49 % 1026,8 hPa 0,0 mm 10,5 km/h (2 Bft) SW -1,7 C 12,2 km/h (3 Bft)
28.01.2016 06:00 8,2 C 7,7 C 52 % 1028,0 hPa 0,0 mm 13,8 km/h (3 Bft) SW -1,1 C 20,2 km/h (4 Bft)
28.01.2016 07:00 8,6 C 8,2 C 53 % 1028,4 hPa 0,0 mm 12,7 km/h (3 Bft) SW -0,5 C 17,3 km/h (3 Bft)
28.01.2016 08:00 9,4 C 9,3 C 53 % 1028,5 hPa 0,0 mm 12,0 km/h (2 Bft) SW 0,4 C 13,0 km/h (3 Bft)
28.01.2016 09:00 10,5 C 11,3 C 53 % 1028,6 hPa 0,0 mm 7,3 km/h (2 Bft) SW 1,3 C 9,6 km/h (2 Bft)
28.01.2016 10:00 10,9 C 12,0 C 53 % 1029,2 hPa 0,0 mm 6,0 km/h (2 Bft) W-SW 1,7 C 6,7 km/h (2 Bft)
28.01.2016 11:00 10,8 C 12,2 C 53 % 1029,8 hPa 0,0 mm 7,7 km/h (2 Bft) W 1,7 C 10,4 km/h (2 Bft)
28.01.2016 12:00 10,4 C 11,7 C 56 % 1028,0 hPa 0,0 mm 8,6 km/h (2 Bft) W-SW 1,9 C 11,8 km/h (2 Bft)
28.01.2016 13:00 10,0 C 10,7 C 58 % 1024,8 hPa 0,0 mm 12,4 km/h (3 Bft) W 2,1 C 18,4 km/h (3 Bft)
28.01.2016 14:00 9,5 C 10,1 C 60 % 1024,6 hPa 0,0 mm 9,3 km/h (2 Bft) W-NW 2,0 C 10,2 km/h (2 Bft)
28.01.2016 15:00 8,9 C 9,6 C 61 % 1024,8 hPa 0,0 mm 5,7 km/h (1 Bft) W-SW 1,9 C 6,7 km/h (2 Bft)
28.01.2016 16:00 8,0 C 8,6 C 65 % 1028,7 hPa 0,0 mm 4,3 km/h (1 Bft) W 1,7 C 5,5 km/h (1 Bft)
28.01.2016 17:00 7,0 C 7,1 C 69 % 1030,7 hPa 0,0 mm 2,7 km/h (1 Bft) SW 1,8 C 3,5 km/h (1 Bft)
28.01.2016 18:00 6,3 C 6,4 C 75 % 1030,9 hPa 0,0 mm 2,2 km/h (1 Bft) SW 2,2 C 3,4 km/h (1 Bft)
28.01.2016 19:00 5,6 C 5,6 C 80 % 1031,3 hPa 0,0 mm 2,6 km/h (1 Bft) SW 2,4 C 3,2 km/h (1 Bft)
28.01.2016 20:00 5,5 C 5,6 C 85 % 1031,7 hPa 0,7 mm 4,1 km/h (1 Bft) SW 3,2 C 5,4 km/h (1 Bft)
28.01.2016 21:00 5,2 C 5,3 C 87 % 1031,5 hPa 0,0 mm 1,1 km/h (1 Bft) S 3,2 C 1,0 km/h (0 Bft)
28.01.2016 22:00 4,4 C 4,6 C 89 % 1031,3 hPa 0,0 mm 0,2 km/h (0 Bft) N 2,8 C 0,0 km/h (0 Bft)
28.01.2016 23:00 3,5 C 3,6 C 89 % 1031,1 hPa 0,0 mm 0,1 km/h (0 Bft) N 1,9 C 0,0 km/h (0 Bft)
29.01.2016 00:00 3,6 C 3,7 C 90 % 1030,9 hPa 0,0 mm 0,0 km/h (0 Bft) N 2,1 C 0,0 km/h (0 Bft)
29.01.2016 01:00 3,7 C 3,8 C 91 % 1030,7 hPa 0,0 mm 0,8 km/h (0 Bft) S-SW 2,3 C 1,7 km/h (1 Bft)
29.01.2016 02:00 4,9 C 4,8 C 92 % 1030,7 hPa 0,7 mm 5,6 km/h (1 Bft) SW 3,7 C 6,8 km/h (2 Bft)
29.01.2016 03:00 5,2 C 5,1 C 91 % 1030,8 hPa 0,0 mm 5,3 km/h (1 Bft) W-SW 3,8 C 6,1 km/h (2 Bft)
29.01.2016 04:00 5,4 C 5,2 C 90 % 1031,1 hPa 0,7 mm 4,9 km/h (1 Bft) W-SW 3,8 C 6,8 km/h (2 Bft)
29.01.2016 05:00 5,5 C 5,2 C 91 % 1031,8 hPa 0,0 mm 7,9 km/h (2 Bft) W 4,1 C 11,4 km/h (2 Bft)
29.01.2016 06:00 5,4 C 5,3 C 91 % 1032,8 hPa 1,4 mm 6,2 km/h (2 Bft) W-SW 4,1 C 9,2 km/h (2 Bft)
29.01.2016 07:00 5,1 C 5,2 C 91 % 1033,7 hPa 0,0 mm 3,3 km/h (1 Bft) W 3,7 C 4,5 km/h (1 Bft)
29.01.2016 08:00 5,1 C 5,3 C 92 % 1034,0 hPa 1,4 mm 3,5 km/h (1 Bft) W-SW 3,9 C 4,8 km/h (1 Bft)
29.01.2016 09:00 5,3 C 5,6 C 92 % 1034,3 hPa 0,7 mm 1,2 km/h (1 Bft) S 4,1 C 2,5 km/h (1 Bft)
29.01.2016 10:00 6,1 C 6,6 C 89 % 1034,6 hPa 0,0 mm 1,8 km/h (1 Bft) W-SW 4,3 C 2,4 km/h (1 Bft)
29.01.2016 11:00 6,8 C 6,7 C 89 % 1034,2 hPa 0,0 mm 7,6 km/h (2 Bft) W 5,0 C 10,5 km/h (2 Bft)
29.01.2016 12:00 7,3 C 7,4 C 84 % 1034,0 hPa 0,0 mm 9,4 km/h (2 Bft) W 4,8 C 12,2 km/h (2 Bft)
29.01.2016 13:00 7,6 C 8,2 C 83 % 1033,7 hPa 0,0 mm 6,7 km/h (2 Bft) NW 4,9 C 7,6 km/h (2 Bft)
29.01.2016 14:00 9,1 C 12,7 C 77 % 1033,7 hPa 0,0 mm 7,0 km/h (2 Bft) W 5,2 C 9,0 km/h (2 Bft)
29.01.2016 15:00 9,0 C 11,9 C 73 % 1033,8 hPa 0,0 mm 7,2 km/h (2 Bft) NW 4,4 C 7,4 km/h (2 Bft)
29.01.2016 16:00 6,9 C 7,0 C 76 % 1033,4 hPa 0,0 mm 3,2 km/h (1 Bft) SW 3,0 C 4,5 km/h (1 Bft)
29.01.2016 17:00 5,5 C 5,1 C 81 % 1033,0 hPa 0,0 mm 1,2 km/h (1 Bft) S-SO 2,5 C 1,1 km/h (1 Bft)
29.01.2016 18:00 3,7 C 3,5 C 86 % 1033,2 hPa 0,0 mm 1,0 km/h (0 Bft) S 1,5 C 2,0 km/h (1 Bft)
29.01.2016 19:00 2,9 C 2,5 C 90 % 1033,3 hPa 0,0 mm 0,6 km/h (0 Bft) S 1,4 C 0,8 km/h (0 Bft)
29.01.2016 20:00 1,8 C 1,5 C 91 % 1033,1 hPa 0,0 mm 0,3 km/h (0 Bft) O-SO 0,5 C 0,6 km/h (0 Bft)
29.01.2016 21:00 0,5 C 0,0 C 91 % 1033,0 hPa 0,0 mm 0,0 km/h (0 Bft) N -0,8 C 0,0 km/h (0 Bft)
29.01.2016 22:00 -0,5 C -0,8 C 91 % 1032,6 hPa 0,0 mm 0,0 km/h (0 Bft) N -1,7 C 0,0 km/h (0 Bft)
29.01.2016 23:00 -0,7 C -1,1 C 92 % 1032,4 hPa 0,0 mm 0,0 km/h (0 Bft) N -1,9 C 0,0 km/h (0 Bft)
30.01.2016 00:00 0,2 C -0,2 C 91 % 1032,2 hPa 0,0 mm 1,1 km/h (1 Bft) S -1,1 C 2,7 km/h (1 Bft)
30.01.2016 01:00 1,3 C 0,9 C 95 % 1031,8 hPa 0,0 mm 2,9 km/h (1 Bft) SO 0,6 C 5,5 km/h (1 Bft)
30.01.2016 02:00 0,3 C -0,2 C 95 % 1031,2 hPa 0,0 mm 0,9 km/h (0 Bft) N-NO -0,5 C 1,2 km/h (1 Bft)
30.01.2016 03:00 -0,5 C -0,8 C 92 % 1030,5 hPa 0,0 mm 1,2 km/h (1 Bft) S -1,7 C 1,8 km/h (1 Bft)
30.01.2016 04:00 -0,3 C -0,7 C 95 % 1029,4 hPa 0,0 mm 0,6 km/h (0 Bft) S -1,0 C 0,9 km/h (0 Bft)
30.01.2016 05:00 -0,5 C -0,8 C 91 % 1029,2 hPa 0,0 mm 1,5 km/h (1 Bft) S-SO -1,7 C 2,6 km/h (1 Bft)
30.01.2016 06:00 -0,5 C -0,9 C 93 % 1028,9 hPa 0,0 mm 2,5 km/h (1 Bft) S-SO -1,5 C 3,8 km/h (1 Bft)
30.01.2016 07:00 -1,1 C -1,6 C 93 % 1028,3 hPa 0,0 mm 0,3 km/h (0 Bft) N -2,1 C 0,0 km/h (0 Bft)
30.01.2016 08:00 -1,9 C -2,3 C 93 % 1028,0 hPa 0,0 mm 0,0 km/h (0 Bft) N -3,0 C 0,0 km/h (0 Bft)
30.01.2016 09:00 -0,4 C -0,6 C 90 % 1027,8 hPa 0,0 mm 0,4 km/h (0 Bft) W-SW -1,8 C 0,9 km/h (0 Bft)
30.01.2016 10:00 3,1 C 2,7 C 93 % 1027,5 hPa 0,0 mm 5,5 km/h (1 Bft) SW 2,0 C 6,9 km/h (2 Bft)
30.01.2016 11:00 4,8 C 5,0 C 85 % 1026,6 hPa 0,0 mm 5,6 km/h (1 Bft) W-SW 2,5 C 6,9 km/h (2 Bft)
30.01.2016 12:00 5,8 C 6,3 C 77 % 1025,4 hPa 0,0 mm 5,1 km/h (1 Bft) W 2,1 C 5,9 km/h (2 Bft)
30.01.2016 13:00 6,7 C 8,1 C 71 % 1023,6 hPa 0,0 mm 2,7 km/h (1 Bft) W 1,7 C 3,1 km/h (1 Bft)
30.01.2016 14:00 9,1 C 13,9 C 64 % 1022,4 hPa 0,0 mm 2,1 km/h (1 Bft) W-NW 2,7 C 2,9 km/h (1 Bft)
30.01.2016 15:00 8,0 C 9,0 C 65 % 1021,9 hPa 0,0 mm 3,5 km/h (1 Bft) W 1,9 C 3,8 km/h (1 Bft)
30.01.2016 16:00 6,8 C 7,1 C 67 % 1021,4 hPa 0,0 mm 3,8 km/h (1 Bft) W-SW 1,1 C 5,5 km/h (1 Bft)
30.01.2016 17:00 5,3 C 5,2 C 73 % 1020,5 hPa 0,0 mm 2,1 km/h (1 Bft) S 0,9 C 3,1 km/h (1 Bft)
30.01.2016 18:00 5,0 C 4,8 C 75 % 1018,1 hPa 0,0 mm 4,0 km/h (1 Bft) S 1,0 C 6,4 km/h (2 Bft)
30.01.2016 19:00 6,2 C 5,7 C 69 % 1014,4 hPa 0,0 mm 13,8 km/h (3 Bft) W 0,8 C 22,2 km/h (4 Bft)
30.01.2016 20:00 6,6 C 6,2 C 65 % 1014,0 hPa 0,0 mm 13,2 km/h (3 Bft) SW 0,5 C 18,3 km/h (3 Bft)
30.01.2016 21:00 5,1 C 4,6 C 76 % 1014,1 hPa 1,4 mm 6,8 km/h (2 Bft) W-NW 1,3 C 6,8 km/h (2 Bft)
30.01.2016 22:00 4,1 C 3,9 C 84 % 1013,8 hPa 2,1 mm 5,2 km/h (1 Bft) W 1,8 C 6,3 km/h (2 Bft)
30.01.2016 23:00 3,8 C 3,7 C 88 % 1013,6 hPa 2,1 mm 4,1 km/h (1 Bft) W 2,0 C 4,2 km/h (1 Bft)
31.01.2016 00:00 3,8 C 3,2 C 90 % 1014,0 hPa 2,7 mm 9,6 km/h (2 Bft) W-SW 2,3 C 17,1 km/h (3 Bft)
31.01.2016 01:00 3,1 C 2,3 C 90 % 1014,3 hPa 2,1 mm 12,6 km/h (3 Bft) W 1,6 C 19,1 km/h (3 Bft)
31.01.2016 02:00 2,0 C 1,1 C 91 % 1014,7 hPa 4,1 mm 10,9 km/h (2 Bft) W-SW 0,6 C 12,9 km/h (3 Bft)
31.01.2016 03:00 1,0 C 0,4 C 91 % 1015,4 hPa 2,7 mm 6,5 km/h (2 Bft) W -0,2 C 7,5 km/h (2 Bft)
31.01.2016 04:00 0,3 C 0,1 C 92 % 1015,7 hPa 0,7 mm 2,5 km/h (1 Bft) W-NW -0,8 C 3,2 km/h (1 Bft)
31.01.2016 05:00 0,2 C 0,0 C 92 % 1015,5 hPa 0,0 mm 0,0 km/h (0 Bft) N -0,9 C 0,0 km/h (0 Bft)
31.01.2016 06:00 0,2 C 0,0 C 92 % 1015,9 hPa 0,0 mm 0,0 km/h (0 Bft) N -0,9 C 0,0 km/h (0 Bft)
31.01.2016 07:00 0,2 C 0,0 C 91 % 1016,2 hPa 0,0 mm 0,0 km/h (0 Bft) N -1,1 C 0,0 km/h (0 Bft)
31.01.2016 08:00 0,3 C 0,1 C 88 % 1016,3 hPa 0,0 mm 0,0 km/h (0 Bft) N -1,4 C 0,0 km/h (0 Bft)
31.01.2016 09:00 0,8 C 0,6 C 90 % 1016,0 hPa 1,4 mm 0,0 km/h (0 Bft) N -0,6 C 0,0 km/h (0 Bft)
31.01.2016 10:00 0,8 C 0,9 C 88 % 1015,7 hPa 1,4 mm 0,3 km/h (0 Bft) SO -1,0 C 0,9 km/h (0 Bft)
31.01.2016 11:00 1,4 C 1,7 C 88 % 1015,4 hPa 4,1 mm 2,4 km/h (1 Bft) W-SW -0,4 C 1,8 km/h (1 Bft)
31.01.2016 12:00 1,3 C 1,6 C 87 % 1015,1 hPa 2,1 mm 1,0 km/h (0 Bft) W-SW -0,6 C 1,1 km/h (1 Bft)
31.01.2016 13:00 0,7 C 0,8 C 88 % 1014,6 hPa 0,7 mm 0,0 km/h (0 Bft) N -1,0 C 0,0 km/h (0 Bft)
31.01.2016 14:00 0,7 C 0,8 C 88 % 1014,5 hPa 0,7 mm 0,0 km/h (0 Bft) N -1,1 C 0,0 km/h (0 Bft)
31.01.2016 15:00 0,6 C 0,7 C 88 % 1014,1 hPa 2,1 mm 0,0 km/h (0 Bft) N -1,1 C 0,0 km/h (0 Bft)
31.01.2016 16:00 0,5 C 0,5 C 88 % 1014,0 hPa 1,4 mm 0,0 km/h (0 Bft) N -1,1 C 0,0 km/h (0 Bft)
31.01.2016 17:00 0,4 C 0,2 C 92 % 1014,2 hPa 1,4 mm 0,2 km/h (0 Bft) N -0,8 C 0,2 km/h (0 Bft)
31.01.2016 18:00 0,9 C 0,7 C 91 % 1014,2 hPa 2,1 mm 1,9 km/h (1 Bft) W-SW -0,4 C 3,0 km/h (1 Bft)
31.01.2016 19:00 4,3 C 4,0 C 94 % 1014,1 hPa 5,5 mm 9,3 km/h (2 Bft) W-SW 3,4 C 11,4 km/h (2 Bft)
31.01.2016 20:00 5,3 C 4,9 C 94 % 1014,3 hPa 4,1 mm 10,5 km/h (2 Bft) W-SW 4,4 C 14,6 km/h (3 Bft)
31.01.2016 21:00 6,1 C 5,6 C 94 % 1014,4 hPa 3,4 mm 11,2 km/h (2 Bft) W-SW 5,1 C 16,6 km/h (3 Bft)
31.01.2016 22:00 7,3 C 6,6 C 89 % 1014,7 hPa 2,1 mm 20,5 km/h (4 Bft) W-SW 5,7 C 30,8 km/h (5 Bft)
31.01.2016 23:00 7,5 C 6,9 C 89 % 1015,2 hPa 0,7 mm 17,0 km/h (3 Bft) W 5,8 C 20,6 km/h (4 Bft)
Min-Datum _ 30.01.16 30.01.16 28.01.16 30.01.16 - 31.01.16 - 30.01.16 31.01.16
_ Min-Zeit 08:40 08:15 05:00 23:05 - 18:00 - 08:55 18:00
Minimum _ -2,2 C -2,5 C 48 % 1013,4 hPa - 0,0 km/h (0 Bft) - -3,4 C 0,0 km/h (0 Bft)
Max-Datum _ 26.01.16 26.01.16 30.01.16 25.01.16 31.01.16 31.01.16 - 31.01.16 31.01.16
_ Max-Zeit 15:10 14:35 06:10 01:00 19:00 22:15 - 23:55 22:15
Maximum _ 12,6 C 20,5 C 95 % 1035,5 hPa 5,5 mm 23,0 km/h
W-SW (4 Bft)
- 6,1 C 52,0 km/h
W-SW (7 Bft)
Durchschnitt _ 4,5 C 4,8 C 77 % 1028,0 hPa #56,3 mm 3,2 km/h (1 Bft) W-SW 0,5 C 4,4 km/h (1 Bft)